sensor_id;sensor_type;location;lat;lon;timestamp;P1;durP1;ratioP1;P2;durP2;ratioP2
62790;SDS011;48830;53.426;10.300;2022-10-16T00:02:08;9.25;;;6.28;;
62790;SDS011;48830;53.426;10.300;2022-10-16T00:04:33;10.95;;;6.60;;
62790;SDS011;48830;53.426;10.300;2022-10-16T00:06:59;7.97;;;6.55;;
62790;SDS011;48830;53.426;10.300;2022-10-16T00:09:24;10.55;;;6.68;;
62790;SDS011;48830;53.426;10.300;2022-10-16T00:11:49;8.95;;;6.60;;
62790;SDS011;48830;53.426;10.300;2022-10-16T00:14:15;9.10;;;6.63;;
62790;SDS011;48830;53.426;10.300;2022-10-16T00:16:41;9.20;;;7.03;;
62790;SDS011;48830;53.426;10.300;2022-10-16T00:19:07;9.77;;;6.80;;
62790;SDS011;48830;53.426;10.300;2022-10-16T00:21:33;9.35;;;6.45;;
62790;SDS011;48830;53.426;10.300;2022-10-16T00:24:03;9.38;;;6.20;;
62790;SDS011;48830;53.426;10.300;2022-10-16T00:26:32;9.23;;;6.40;;
62790;SDS011;48830;53.426;10.300;2022-10-16T00:28:58;9.82;;;6.22;;
62790;SDS011;48830;53.426;10.300;2022-10-16T00:31:24;11.90;;;5.95;;
62790;SDS011;48830;53.426;10.300;2022-10-16T00:33:50;9.38;;;5.95;;
62790;SDS011;48830;53.426;10.300;2022-10-16T00:36:17;14.70;;;7.10;;
62790;SDS011;48830;53.426;10.300;2022-10-16T00:38:44;12.13;;;6.93;;
62790;SDS011;48830;53.426;10.300;2022-10-16T00:41:14;8.50;;;6.28;;
62790;SDS011;48830;53.426;10.300;2022-10-16T00:46:21;10.95;;;6.45;;
62790;SDS011;48830;53.426;10.300;2022-10-16T00:51:41;9.57;;;6.32;;
62790;SDS011;48830;53.426;10.300;2022-10-16T00:54:10;10.98;;;6.13;;
62790;SDS011;48830;53.426;10.300;2022-10-16T00:56:39;9.13;;;5.95;;
62790;SDS011;48830;53.426;10.300;2022-10-16T00:59:09;10.27;;;6.70;;
62790;SDS011;48830;53.426;10.300;2022-10-16T01:01:40;8.93;;;5.75;;
62790;SDS011;48830;53.426;10.300;2022-10-16T01:04:05;10.07;;;5.97;;
62790;SDS011;48830;53.426;10.300;2022-10-16T01:06:47;9.05;;;6.40;;
62790;SDS011;48830;53.426;10.300;2022-10-16T01:09:23;9.25;;;6.05;;
62790;SDS011;48830;53.426;10.300;2022-10-16T01:12:10;9.68;;;5.65;;
62790;SDS011;48830;53.426;10.300;2022-10-16T01:14:54;7.80;;;5.65;;
62790;SDS011;48830;53.426;10.300;2022-10-16T01:20:14;9.07;;;5.68;;
62790;SDS011;48830;53.426;10.300;2022-10-16T01:31:32;8.93;;;5.68;;
62790;SDS011;48830;53.426;10.300;2022-10-16T01:36:44;9.88;;;5.18;;
62790;SDS011;48830;53.426;10.300;2022-10-16T01:39:13;8.63;;;4.60;;
62790;SDS011;48830;53.426;10.300;2022-10-16T01:41:43;10.18;;;5.22;;
62790;SDS011;48830;53.426;10.300;2022-10-16T01:44:14;11.20;;;5.60;;
62790;SDS011;48830;53.426;10.300;2022-10-16T01:46:44;7.40;;;4.88;;
62790;SDS011;48830;53.426;10.300;2022-10-16T01:49:13;8.63;;;4.78;;
62790;SDS011;48830;53.426;10.300;2022-10-16T01:51:39;9.30;;;4.93;;
62790;SDS011;48830;53.426;10.300;2022-10-16T01:54:08;8.13;;;4.70;;
62790;SDS011;48830;53.426;10.300;2022-10-16T01:56:36;8.98;;;4.80;;
62790;SDS011;48830;53.426;10.300;2022-10-16T01:59:13;7.43;;;4.22;;
62790;SDS011;48830;53.426;10.300;2022-10-16T02:01:48;9.55;;;4.40;;
62790;SDS011;48830;53.426;10.300;2022-10-16T02:06:52;6.30;;;4.05;;
62790;SDS011;48830;53.426;10.300;2022-10-16T02:09:18;7.38;;;4.13;;
62790;SDS011;48830;53.426;10.300;2022-10-16T02:11:44;6.78;;;3.80;;
62790;SDS011;48830;53.426;10.300;2022-10-16T02:14:10;6.43;;;3.67;;
62790;SDS011;48830;53.426;10.300;2022-10-16T02:16:36;6.38;;;3.65;;
62790;SDS011;48830;53.426;10.300;2022-10-16T02:19:10;6.95;;;3.63;;
62790;SDS011;48830;53.426;10.300;2022-10-16T02:21:43;5.70;;;3.47;;
62790;SDS011;48830;53.426;10.300;2022-10-16T02:24:33;8.30;;;3.75;;
62790;SDS011;48830;53.426;10.300;2022-10-16T02:29:54;5.57;;;3.22;;
62790;SDS011;48830;53.426;10.300;2022-10-16T02:32:27;6.05;;;3.00;;
62790;SDS011;48830;53.426;10.300;2022-10-16T02:34:56;6.28;;;3.05;;
62790;SDS011;48830;53.426;10.300;2022-10-16T02:37:23;7.38;;;3.30;;
62790;SDS011;48830;53.426;10.300;2022-10-16T02:39:50;5.28;;;2.70;;
62790;SDS011;48830;53.426;10.300;2022-10-16T02:42:17;5.15;;;2.85;;
62790;SDS011;48830;53.426;10.300;2022-10-16T02:44:43;7.55;;;2.92;;
62790;SDS011;48830;53.426;10.300;2022-10-16T02:47:08;5.65;;;2.50;;
62790;SDS011;48830;53.426;10.300;2022-10-16T02:49:33;6.35;;;3.00;;
62790;SDS011;48830;53.426;10.300;2022-10-16T02:51:59;3.38;;;2.13;;
62790;SDS011;48830;53.426;10.300;2022-10-16T02:54:24;4.47;;;2.53;;
62790;SDS011;48830;53.426;10.300;2022-10-16T02:56:50;7.97;;;2.33;;
62790;SDS011;48830;53.426;10.300;2022-10-16T02:59:15;5.45;;;2.50;;
62790;SDS011;48830;53.426;10.300;2022-10-16T03:01:41;4.75;;;2.55;;
62790;SDS011;48830;53.426;10.300;2022-10-16T03:04:06;6.38;;;2.75;;
62790;SDS011;48830;53.426;10.300;2022-10-16T03:06:32;6.22;;;2.60;;
62790;SDS011;48830;53.426;10.300;2022-10-16T03:08:57;4.07;;;2.33;;
62790;SDS011;48830;53.426;10.300;2022-10-16T03:11:22;5.07;;;2.60;;
62790;SDS011;48830;53.426;10.300;2022-10-16T03:13:48;4.80;;;2.45;;
62790;SDS011;48830;53.426;10.300;2022-10-16T03:16:13;5.75;;;2.15;;
62790;SDS011;48830;53.426;10.300;2022-10-16T03:18:39;4.70;;;2.45;;
62790;SDS011;48830;53.426;10.300;2022-10-16T03:21:04;5.38;;;2.45;;
62790;SDS011;48830;53.426;10.300;2022-10-16T03:23:29;6.38;;;2.30;;
62790;SDS011;48830;53.426;10.300;2022-10-16T03:25:55;6.78;;;2.63;;
62790;SDS011;48830;53.426;10.300;2022-10-16T03:28:20;4.10;;;2.20;;
62790;SDS011;48830;53.426;10.300;2022-10-16T03:30:46;4.60;;;2.17;;
62790;SDS011;48830;53.426;10.300;2022-10-16T03:33:11;3.55;;;2.10;;
62790;SDS011;48830;53.426;10.300;2022-10-16T03:35:37;5.82;;;2.50;;
62790;SDS011;48830;53.426;10.300;2022-10-16T03:38:02;8.80;;;3.03;;
62790;SDS011;48830;53.426;10.300;2022-10-16T03:40:28;5.13;;;2.47;;
62790;SDS011;48830;53.426;10.300;2022-10-16T03:42:53;7.15;;;2.50;;
62790;SDS011;48830;53.426;10.300;2022-10-16T03:45:23;5.63;;;2.00;;
62790;SDS011;48830;53.426;10.300;2022-10-16T03:47:48;3.63;;;2.05;;
62790;SDS011;48830;53.426;10.300;2022-10-16T03:50:14;3.33;;;2.17;;
62790;SDS011;48830;53.426;10.300;2022-10-16T03:52:40;6.07;;;2.33;;
62790;SDS011;48830;53.426;10.300;2022-10-16T03:55:06;6.88;;;2.45;;
62790;SDS011;48830;53.426;10.300;2022-10-16T03:57:31;4.47;;;2.55;;
62790;SDS011;48830;53.426;10.300;2022-10-16T03:59:57;5.35;;;2.28;;
62790;SDS011;48830;53.426;10.300;2022-10-16T04:02:22;7.97;;;2.40;;
62790;SDS011;48830;53.426;10.300;2022-10-16T04:04:48;5.28;;;2.25;;
62790;SDS011;48830;53.426;10.300;2022-10-16T04:07:13;3.97;;;2.20;;
62790;SDS011;48830;53.426;10.300;2022-10-16T04:09:39;5.00;;;2.35;;
62790;SDS011;48830;53.426;10.300;2022-10-16T04:12:04;7.40;;;2.63;;
62790;SDS011;48830;53.426;10.300;2022-10-16T04:14:30;5.88;;;2.25;;
62790;SDS011;48830;53.426;10.300;2022-10-16T04:16:55;6.60;;;2.33;;
62790;SDS011;48830;53.426;10.300;2022-10-16T04:19:20;3.47;;;1.92;;
62790;SDS011;48830;53.426;10.300;2022-10-16T04:21:46;7.35;;;2.30;;
62790;SDS011;48830;53.426;10.300;2022-10-16T04:24:11;5.78;;;2.45;;
62790;SDS011;48830;53.426;10.300;2022-10-16T04:26:37;6.68;;;2.17;;
62790;SDS011;48830;53.426;10.300;2022-10-16T04:29:02;4.28;;;2.40;;
62790;SDS011;48830;53.426;10.300;2022-10-16T04:31:28;4.88;;;2.20;;
62790;SDS011;48830;53.426;10.300;2022-10-16T04:33:53;6.70;;;2.33;;
62790;SDS011;48830;53.426;10.300;2022-10-16T04:36:19;5.18;;;2.20;;
62790;SDS011;48830;53.426;10.300;2022-10-16T04:38:44;5.68;;;2.35;;
62790;SDS011;48830;53.426;10.300;2022-10-16T04:41:09;4.55;;;2.03;;
62790;SDS011;48830;53.426;10.300;2022-10-16T04:43:35;4.40;;;2.17;;
62790;SDS011;48830;53.426;10.300;2022-10-16T04:46:00;6.28;;;2.13;;
62790;SDS011;48830;53.426;10.300;2022-10-16T04:48:26;3.72;;;2.00;;
62790;SDS011;48830;53.426;10.300;2022-10-16T04:50:52;4.30;;;2.20;;
62790;SDS011;48830;53.426;10.300;2022-10-16T04:53:18;6.68;;;2.42;;
62790;SDS011;48830;53.426;10.300;2022-10-16T04:55:43;4.18;;;2.50;;
62790;SDS011;48830;53.426;10.300;2022-10-16T04:58:09;4.60;;;2.30;;
62790;SDS011;48830;53.426;10.300;2022-10-16T05:00:34;5.90;;;2.47;;
62790;SDS011;48830;53.426;10.300;2022-10-16T05:03:00;6.78;;;2.47;;
62790;SDS011;48830;53.426;10.300;2022-10-16T05:05:26;6.53;;;2.55;;
62790;SDS011;48830;53.426;10.300;2022-10-16T05:07:52;5.85;;;2.50;;
62790;SDS011;48830;53.426;10.300;2022-10-16T05:10:18;5.18;;;2.60;;
62790;SDS011;48830;53.426;10.300;2022-10-16T05:12:44;4.60;;;2.30;;
62790;SDS011;48830;53.426;10.300;2022-10-16T05:15:11;7.10;;;2.50;;
62790;SDS011;48830;53.426;10.300;2022-10-16T05:17:37;4.80;;;2.53;;
62790;SDS011;48830;53.426;10.300;2022-10-16T05:20:02;5.18;;;2.58;;
62790;SDS011;48830;53.426;10.300;2022-10-16T05:22:28;7.95;;;2.50;;
62790;SDS011;48830;53.426;10.300;2022-10-16T05:24:54;8.15;;;2.85;;
62790;SDS011;48830;53.426;10.300;2022-10-16T05:27:19;5.35;;;2.42;;
62790;SDS011;48830;53.426;10.300;2022-10-16T05:29:45;6.40;;;2.60;;
62790;SDS011;48830;53.426;10.300;2022-10-16T05:32:12;5.53;;;2.58;;
62790;SDS011;48830;53.426;10.300;2022-10-16T05:34:38;8.68;;;2.88;;
62790;SDS011;48830;53.426;10.300;2022-10-16T05:37:04;7.22;;;3.03;;
62790;SDS011;48830;53.426;10.300;2022-10-16T05:39:29;6.47;;;3.00;;
62790;SDS011;48830;53.426;10.300;2022-10-16T05:41:54;7.63;;;3.03;;
62790;SDS011;48830;53.426;10.300;2022-10-16T05:44:20;5.82;;;2.72;;
62790;SDS011;48830;53.426;10.300;2022-10-16T05:46:46;10.20;;;3.20;;
62790;SDS011;48830;53.426;10.300;2022-10-16T05:49:11;5.55;;;2.80;;
62790;SDS011;48830;53.426;10.300;2022-10-16T05:51:37;6.82;;;2.92;;
62790;SDS011;48830;53.426;10.300;2022-10-16T05:54:02;7.25;;;3.08;;
62790;SDS011;48830;53.426;10.300;2022-10-16T05:56:28;8.50;;;3.17;;
62790;SDS011;48830;53.426;10.300;2022-10-16T05:58:53;9.48;;;3.50;;
62790;SDS011;48830;53.426;10.300;2022-10-16T06:01:19;5.35;;;2.95;;
62790;SDS011;48830;53.426;10.300;2022-10-16T06:03:46;6.50;;;3.50;;
62790;SDS011;48830;53.426;10.300;2022-10-16T06:06:12;6.28;;;2.72;;
62790;SDS011;48830;53.426;10.300;2022-10-16T06:08:40;6.40;;;2.80;;
62790;SDS011;48830;53.426;10.300;2022-10-16T06:11:08;7.38;;;3.20;;
62790;SDS011;48830;53.426;10.300;2022-10-16T06:13:35;5.93;;;3.03;;
62790;SDS011;48830;53.426;10.300;2022-10-16T06:16:02;6.35;;;3.33;;
62790;SDS011;48830;53.426;10.300;2022-10-16T06:18:28;8.25;;;2.78;;
62790;SDS011;48830;53.426;10.300;2022-10-16T06:20:54;6.20;;;3.10;;
62790;SDS011;48830;53.426;10.300;2022-10-16T06:23:21;7.65;;;3.10;;
62790;SDS011;48830;53.426;10.300;2022-10-16T06:25:47;7.85;;;3.67;;
62790;SDS011;48830;53.426;10.300;2022-10-16T06:28:15;7.95;;;3.67;;
62790;SDS011;48830;53.426;10.300;2022-10-16T06:30:41;5.78;;;3.22;;
62790;SDS011;48830;53.426;10.300;2022-10-16T06:33:09;5.70;;;3.13;;
62790;SDS011;48830;53.426;10.300;2022-10-16T06:35:35;6.65;;;3.20;;
62790;SDS011;48830;53.426;10.300;2022-10-16T06:38:01;6.68;;;3.22;;
62790;SDS011;48830;53.426;10.300;2022-10-16T06:40:26;7.65;;;3.17;;
62790;SDS011;48830;53.426;10.300;2022-10-16T06:42:54;7.72;;;3.70;;
62790;SDS011;48830;53.426;10.300;2022-10-16T06:45:20;9.52;;;3.47;;
62790;SDS011;48830;53.426;10.300;2022-10-16T06:47:45;7.50;;;3.70;;
62790;SDS011;48830;53.426;10.300;2022-10-16T06:50:11;6.95;;;3.30;;
62790;SDS011;48830;53.426;10.300;2022-10-16T06:52:36;5.53;;;3.08;;
62790;SDS011;48830;53.426;10.300;2022-10-16T06:55:02;8.98;;;3.13;;
62790;SDS011;48830;53.426;10.300;2022-10-16T06:57:28;5.93;;;3.28;;
62790;SDS011;48830;53.426;10.300;2022-10-16T06:59:53;8.75;;;3.30;;
62790;SDS011;48830;53.426;10.300;2022-10-16T07:02:19;7.00;;;3.55;;
62790;SDS011;48830;53.426;10.300;2022-10-16T07:04:44;10.10;;;3.47;;
62790;SDS011;48830;53.426;10.300;2022-10-16T07:07:10;6.32;;;3.30;;
62790;SDS011;48830;53.426;10.300;2022-10-16T07:09:35;8.40;;;3.75;;
62790;SDS011;48830;53.426;10.300;2022-10-16T07:12:01;7.30;;;3.70;;
62790;SDS011;48830;53.426;10.300;2022-10-16T07:14:26;6.88;;;3.25;;
62790;SDS011;48830;53.426;10.300;2022-10-16T07:16:52;7.13;;;3.47;;
62790;SDS011;48830;53.426;10.300;2022-10-16T07:19:17;6.85;;;3.80;;
62790;SDS011;48830;53.426;10.300;2022-10-16T07:21:43;5.78;;;3.10;;
62790;SDS011;48830;53.426;10.300;2022-10-16T07:24:13;6.70;;;3.22;;
62790;SDS011;48830;53.426;10.300;2022-10-16T07:26:40;5.28;;;3.08;;
62790;SDS011;48830;53.426;10.300;2022-10-16T07:29:07;7.30;;;3.20;;
62790;SDS011;48830;53.426;10.300;2022-10-16T07:31:37;8.32;;;3.50;;
62790;SDS011;48830;53.426;10.300;2022-10-16T07:34:03;6.03;;;3.08;;
62790;SDS011;48830;53.426;10.300;2022-10-16T07:36:28;8.15;;;3.25;;
62790;SDS011;48830;53.426;10.300;2022-10-16T07:38:54;7.85;;;3.35;;
62790;SDS011;48830;53.426;10.300;2022-10-16T07:41:19;5.30;;;3.03;;
62790;SDS011;48830;53.426;10.300;2022-10-16T07:43:46;5.05;;;2.72;;
62790;SDS011;48830;53.426;10.300;2022-10-16T07:46:13;6.00;;;3.30;;
62790;SDS011;48830;53.426;10.300;2022-10-16T07:48:39;6.65;;;2.90;;
62790;SDS011;48830;53.426;10.300;2022-10-16T07:51:05;6.03;;;3.10;;
62790;SDS011;48830;53.426;10.300;2022-10-16T07:53:32;7.80;;;3.08;;
62790;SDS011;48830;53.426;10.300;2022-10-16T07:56:02;8.38;;;2.88;;
62790;SDS011;48830;53.426;10.300;2022-10-16T07:58:29;5.05;;;2.60;;
62790;SDS011;48830;53.426;10.300;2022-10-16T08:00:55;7.22;;;2.60;;
62790;SDS011;48830;53.426;10.300;2022-10-16T08:03:21;4.10;;;2.45;;
62790;SDS011;48830;53.426;10.300;2022-10-16T08:05:47;4.25;;;2.33;;
62790;SDS011;48830;53.426;10.300;2022-10-16T08:08:13;4.43;;;2.20;;
62790;SDS011;48830;53.426;10.300;2022-10-16T08:10:39;6.05;;;2.30;;
62790;SDS011;48830;53.426;10.300;2022-10-16T08:13:05;6.93;;;2.70;;
62790;SDS011;48830;53.426;10.300;2022-10-16T08:15:30;4.35;;;2.25;;
62790;SDS011;48830;53.426;10.300;2022-10-16T08:17:59;3.65;;;2.00;;
62790;SDS011;48830;53.426;10.300;2022-10-16T08:20:26;4.40;;;2.38;;
62790;SDS011;48830;53.426;10.300;2022-10-16T08:22:54;7.32;;;2.55;;
62790;SDS011;48830;53.426;10.300;2022-10-16T08:25:20;5.05;;;2.33;;
62790;SDS011;48830;53.426;10.300;2022-10-16T08:27:47;6.30;;;2.33;;
62790;SDS011;48830;53.426;10.300;2022-10-16T08:30:13;6.85;;;2.30;;
62790;SDS011;48830;53.426;10.300;2022-10-16T08:32:39;4.53;;;2.10;;
62790;SDS011;48830;53.426;10.300;2022-10-16T08:35:06;5.57;;;2.10;;
62790;SDS011;48830;53.426;10.300;2022-10-16T08:37:32;3.40;;;1.85;;
62790;SDS011;48830;53.426;10.300;2022-10-16T08:39:58;4.88;;;2.00;;
62790;SDS011;48830;53.426;10.300;2022-10-16T08:42:28;6.50;;;2.47;;
62790;SDS011;48830;53.426;10.300;2022-10-16T08:51:11;4.50;;;1.70;;
62790;SDS011;48830;53.426;10.300;2022-10-16T08:54:02;4.38;;;1.70;;
62790;SDS011;48830;53.426;10.300;2022-10-16T08:56:29;3.00;;;1.65;;
62790;SDS011;48830;53.426;10.300;2022-10-16T08:58:55;3.65;;;1.90;;
62790;SDS011;48830;53.426;10.300;2022-10-16T09:01:23;6.05;;;2.40;;
62790;SDS011;48830;53.426;10.300;2022-10-16T09:09:44;1.52;;;1.30;;
62790;SDS011;48830;53.426;10.300;2022-10-16T09:15:25;2.15;;;1.55;;
62790;SDS011;48830;53.426;10.300;2022-10-16T09:24:00;2.65;;;1.50;;
62790;SDS011;48830;53.426;10.300;2022-10-16T09:26:36;3.50;;;1.58;;
62790;SDS011;48830;53.426;10.300;2022-10-16T09:29:02;5.88;;;1.67;;
62790;SDS011;48830;53.426;10.300;2022-10-16T09:31:28;4.07;;;1.40;;
62790;SDS011;48830;53.426;10.300;2022-10-16T09:33:55;3.97;;;1.60;;
62790;SDS011;48830;53.426;10.300;2022-10-16T09:36:25;3.10;;;1.30;;
62790;SDS011;48830;53.426;10.300;2022-10-16T09:39:06;4.00;;;1.40;;
62790;SDS011;48830;53.426;10.300;2022-10-16T09:41:37;3.58;;;1.33;;
62790;SDS011;48830;53.426;10.300;2022-10-16T09:44:12;2.72;;;1.33;;
62790;SDS011;48830;53.426;10.300;2022-10-16T09:46:45;4.38;;;1.45;;
62790;SDS011;48830;53.426;10.300;2022-10-16T09:49:24;2.85;;;1.48;;
62790;SDS011;48830;53.426;10.300;2022-10-16T09:51:51;3.08;;;1.30;;
62790;SDS011;48830;53.426;10.300;2022-10-16T09:54:38;3.20;;;1.30;;
62790;SDS011;48830;53.426;10.300;2022-10-16T09:57:15;5.30;;;1.60;;
62790;SDS011;48830;53.426;10.300;2022-10-16T09:59:53;2.92;;;1.20;;
62790;SDS011;48830;53.426;10.300;2022-10-16T10:02:26;2.53;;;1.30;;
62790;SDS011;48830;53.426;10.300;2022-10-16T10:04:55;5.05;;;1.40;;
62790;SDS011;48830;53.426;10.300;2022-10-16T10:07:25;3.63;;;1.52;;
62790;SDS011;48830;53.426;10.300;2022-10-16T10:09:52;3.97;;;1.38;;
62790;SDS011;48830;53.426;10.300;2022-10-16T10:12:20;2.88;;;1.30;;
62790;SDS011;48830;53.426;10.300;2022-10-16T10:14:49;5.72;;;1.35;;
62790;SDS011;48830;53.426;10.300;2022-10-16T10:17:20;4.13;;;1.40;;
62790;SDS011;48830;53.426;10.300;2022-10-16T10:22:22;4.97;;;1.35;;
62790;SDS011;48830;53.426;10.300;2022-10-16T10:24:56;4.25;;;1.20;;
62790;SDS011;48830;53.426;10.300;2022-10-16T10:27:28;4.32;;;1.30;;
62790;SDS011;48830;53.426;10.300;2022-10-16T10:30:06;2.63;;;1.25;;
62790;SDS011;48830;53.426;10.300;2022-10-16T10:49:55;5.32;;;1.23;;
62790;SDS011;48830;53.426;10.300;2022-10-16T11:01:11;3.50;;;1.58;;
62790;SDS011;48830;53.426;10.300;2022-10-16T11:09:17;3.50;;;1.30;;
62790;SDS011;48830;53.426;10.300;2022-10-16T11:11:50;6.25;;;1.58;;
62790;SDS011;48830;53.426;10.300;2022-10-16T11:17:02;4.30;;;1.40;;
62790;SDS011;48830;53.426;10.300;2022-10-16T11:19:35;4.32;;;1.10;;
62790;SDS011;48830;53.426;10.300;2022-10-16T11:22:23;3.97;;;1.42;;
62790;SDS011;48830;53.426;10.300;2022-10-16T11:24:52;5.25;;;1.38;;
62790;SDS011;48830;53.426;10.300;2022-10-16T11:27:26;5.68;;;1.63;;
62790;SDS011;48830;53.426;10.300;2022-10-16T11:30:02;4.97;;;1.45;;
62790;SDS011;48830;53.426;10.300;2022-10-16T11:32:36;3.95;;;1.30;;
62790;SDS011;48830;53.426;10.300;2022-10-16T11:35:19;2.92;;;1.30;;
62790;SDS011;48830;53.426;10.300;2022-10-16T11:37:50;3.00;;;1.38;;
62790;SDS011;48830;53.426;10.300;2022-10-16T11:40:23;4.65;;;1.50;;
62790;SDS011;48830;53.426;10.300;2022-10-16T11:42:56;3.28;;;1.13;;
62790;SDS011;48830;53.426;10.300;2022-10-16T11:45:39;4.43;;;1.30;;
62790;SDS011;48830;53.426;10.300;2022-10-16T11:53:53;4.15;;;1.33;;
62790;SDS011;48830;53.426;10.300;2022-10-16T11:56:25;3.13;;;1.30;;
62790;SDS011;48830;53.426;10.300;2022-10-16T12:09:20;5.28;;;1.40;;
62790;SDS011;48830;53.426;10.300;2022-10-16T12:11:50;5.68;;;1.13;;
62790;SDS011;48830;53.426;10.300;2022-10-16T12:19:17;5.00;;;1.42;;
62790;SDS011;48830;53.426;10.300;2022-10-16T12:21:43;5.07;;;1.30;;
62790;SDS011;48830;53.426;10.300;2022-10-16T12:24:21;3.10;;;1.20;;
62790;SDS011;48830;53.426;10.300;2022-10-16T12:26:52;3.92;;;1.25;;
62790;SDS011;48830;53.426;10.300;2022-10-16T12:29:37;4.38;;;1.33;;
62790;SDS011;48830;53.426;10.300;2022-10-16T12:32:18;4.13;;;1.42;;
62790;SDS011;48830;53.426;10.300;2022-10-16T12:34:50;3.28;;;1.20;;
62790;SDS011;48830;53.426;10.300;2022-10-16T12:37:35;2.65;;;1.17;;
62790;SDS011;48830;53.426;10.300;2022-10-16T12:40:22;3.50;;;1.02;;
62790;SDS011;48830;53.426;10.300;2022-10-16T12:42:54;3.88;;;1.20;;
62790;SDS011;48830;53.426;10.300;2022-10-16T12:45:30;3.85;;;1.75;;
62790;SDS011;48830;53.426;10.300;2022-10-16T12:47:58;1.98;;;1.08;;
62790;SDS011;48830;53.426;10.300;2022-10-16T12:50:35;4.35;;;1.40;;
62790;SDS011;48830;53.426;10.300;2022-10-16T12:53:03;4.00;;;1.13;;
62790;SDS011;48830;53.426;10.300;2022-10-16T12:55:45;3.03;;;1.38;;
62790;SDS011;48830;53.426;10.300;2022-10-16T12:58:36;3.75;;;1.27;;
62790;SDS011;48830;53.426;10.300;2022-10-16T13:09:33;5.95;;;1.60;;
62790;SDS011;48830;53.426;10.300;2022-10-16T13:14:55;3.75;;;1.45;;
62790;SDS011;48830;53.426;10.300;2022-10-16T13:17:29;3.67;;;1.30;;
62790;SDS011;48830;53.426;10.300;2022-10-16T13:25:46;3.72;;;1.40;;
62790;SDS011;48830;53.426;10.300;2022-10-16T13:28:38;4.65;;;1.55;;
62790;SDS011;48830;53.426;10.300;2022-10-16T13:31:04;4.47;;;1.40;;
62790;SDS011;48830;53.426;10.300;2022-10-16T13:33:35;3.88;;;1.60;;
62790;SDS011;48830;53.426;10.300;2022-10-16T13:36:02;4.90;;;1.40;;
62790;SDS011;48830;53.426;10.300;2022-10-16T13:38:30;4.15;;;1.35;;
62790;SDS011;48830;53.426;10.300;2022-10-16T13:41:04;3.53;;;1.42;;
62790;SDS011;48830;53.426;10.300;2022-10-16T13:46:03;3.13;;;1.30;;
62790;SDS011;48830;53.426;10.300;2022-10-16T13:48:36;5.22;;;1.40;;
62790;SDS011;48830;53.426;10.300;2022-10-16T13:53:36;4.15;;;1.35;;
62790;SDS011;48830;53.426;10.300;2022-10-16T13:56:06;5.45;;;1.38;;
62790;SDS011;48830;53.426;10.300;2022-10-16T13:58:34;6.57;;;1.40;;
62790;SDS011;48830;53.426;10.300;2022-10-16T14:01:04;4.55;;;1.40;;
62790;SDS011;48830;53.426;10.300;2022-10-16T14:03:39;2.25;;;1.25;;
62790;SDS011;48830;53.426;10.300;2022-10-16T14:06:11;5.78;;;1.48;;
62790;SDS011;48830;53.426;10.300;2022-10-16T14:08:40;6.93;;;1.30;;
62790;SDS011;48830;53.426;10.300;2022-10-16T14:11:08;6.68;;;1.35;;
62790;SDS011;48830;53.426;10.300;2022-10-16T14:13:37;4.78;;;1.30;;
62790;SDS011;48830;53.426;10.300;2022-10-16T14:16:09;4.47;;;1.50;;
62790;SDS011;48830;53.426;10.300;2022-10-16T14:18:36;5.47;;;1.48;;
62790;SDS011;48830;53.426;10.300;2022-10-16T14:21:04;5.28;;;1.63;;
62790;SDS011;48830;53.426;10.300;2022-10-16T14:23:34;7.90;;;1.63;;
62790;SDS011;48830;53.426;10.300;2022-10-16T14:26:22;8.13;;;2.00;;
62790;SDS011;48830;53.426;10.300;2022-10-16T14:28:49;3.97;;;1.38;;
62790;SDS011;48830;53.426;10.300;2022-10-16T14:31:32;6.82;;;1.55;;
62790;SDS011;48830;53.426;10.300;2022-10-16T14:33:58;4.80;;;1.50;;
62790;SDS011;48830;53.426;10.300;2022-10-16T14:36:25;6.05;;;1.60;;
62790;SDS011;48830;53.426;10.300;2022-10-16T14:41:21;6.45;;;1.60;;
62790;SDS011;48830;53.426;10.300;2022-10-16T14:43:50;4.88;;;1.33;;
62790;SDS011;48830;53.426;10.300;2022-10-16T14:46:19;4.13;;;1.60;;
62790;SDS011;48830;53.426;10.300;2022-10-16T14:51:34;4.82;;;1.50;;
62790;SDS011;48830;53.426;10.300;2022-10-16T14:53:59;5.18;;;1.40;;
62790;SDS011;48830;53.426;10.300;2022-10-16T14:56:28;3.45;;;1.45;;
62790;SDS011;48830;53.426;10.300;2022-10-16T14:59:12;6.68;;;1.90;;
62790;SDS011;48830;53.426;10.300;2022-10-16T15:01:44;3.97;;;1.60;;
62790;SDS011;48830;53.426;10.300;2022-10-16T15:04:11;6.97;;;1.65;;
62790;SDS011;48830;53.426;10.300;2022-10-16T15:06:37;5.80;;;1.52;;
62790;SDS011;48830;53.426;10.300;2022-10-16T15:09:03;4.82;;;1.55;;
62790;SDS011;48830;53.426;10.300;2022-10-16T15:11:28;4.13;;;1.63;;
62790;SDS011;48830;53.426;10.300;2022-10-16T15:13:57;5.15;;;1.58;;
62790;SDS011;48830;53.426;10.300;2022-10-16T15:16:23;4.72;;;1.70;;
62790;SDS011;48830;53.426;10.300;2022-10-16T15:18:48;6.22;;;1.70;;
62790;SDS011;48830;53.426;10.300;2022-10-16T15:21:47;5.28;;;1.73;;
62790;SDS011;48830;53.426;10.300;2022-10-16T15:24:08;6.30;;;1.65;;
62790;SDS011;48830;53.426;10.300;2022-10-16T15:26:37;5.55;;;1.55;;
62790;SDS011;48830;53.426;10.300;2022-10-16T15:29:02;5.35;;;1.52;;
62790;SDS011;48830;53.426;10.300;2022-10-16T15:31:28;5.60;;;1.60;;
62790;SDS011;48830;53.426;10.300;2022-10-16T15:33:53;5.07;;;1.60;;
62790;SDS011;48830;53.426;10.300;2022-10-16T15:36:29;6.97;;;1.60;;
62790;SDS011;48830;53.426;10.300;2022-10-16T15:38:58;4.30;;;1.60;;
62790;SDS011;48830;53.426;10.300;2022-10-16T15:41:24;8.43;;;1.77;;
62790;SDS011;48830;53.426;10.300;2022-10-16T15:43:50;3.50;;;1.50;;
62790;SDS011;48830;53.426;10.300;2022-10-16T15:46:17;7.03;;;1.33;;
62790;SDS011;48830;53.426;10.300;2022-10-16T15:48:50;5.15;;;1.30;;
62790;SDS011;48830;53.426;10.300;2022-10-16T15:51:20;6.00;;;1.60;;
62790;SDS011;48830;53.426;10.300;2022-10-16T15:53:45;5.00;;;1.45;;
62790;SDS011;48830;53.426;10.300;2022-10-16T15:56:11;4.43;;;1.30;;
62790;SDS011;48830;53.426;10.300;2022-10-16T15:58:38;6.60;;;1.75;;
62790;SDS011;48830;53.426;10.300;2022-10-16T16:01:04;6.20;;;1.48;;
62790;SDS011;48830;53.426;10.300;2022-10-16T16:03:30;3.67;;;1.50;;
62790;SDS011;48830;53.426;10.300;2022-10-16T16:05:56;8.18;;;2.35;;
62790;SDS011;48830;53.426;10.300;2022-10-16T16:08:22;7.75;;;1.50;;
62790;SDS011;48830;53.426;10.300;2022-10-16T16:11:04;5.60;;;1.95;;
62790;SDS011;48830;53.426;10.300;2022-10-16T16:13:31;5.25;;;1.77;;
62790;SDS011;48830;53.426;10.300;2022-10-16T16:15:57;6.10;;;1.90;;
62790;SDS011;48830;53.426;10.300;2022-10-16T16:18:23;7.22;;;2.22;;
62790;SDS011;48830;53.426;10.300;2022-10-16T16:20:49;4.82;;;1.65;;
62790;SDS011;48830;53.426;10.300;2022-10-16T16:23:17;4.18;;;1.92;;
62790;SDS011;48830;53.426;10.300;2022-10-16T16:25:44;5.60;;;1.80;;
62790;SDS011;48830;53.426;10.300;2022-10-16T16:28:09;7.35;;;2.13;;
62790;SDS011;48830;53.426;10.300;2022-10-16T16:30:39;6.22;;;1.70;;
62790;SDS011;48830;53.426;10.300;2022-10-16T16:33:05;5.80;;;1.77;;
62790;SDS011;48830;53.426;10.300;2022-10-16T16:35:30;6.60;;;1.90;;
62790;SDS011;48830;53.426;10.300;2022-10-16T16:37:55;7.05;;;1.80;;
62790;SDS011;48830;53.426;10.300;2022-10-16T16:40:21;4.45;;;1.60;;
62790;SDS011;48830;53.426;10.300;2022-10-16T16:42:47;7.75;;;2.05;;
62790;SDS011;48830;53.426;10.300;2022-10-16T16:45:13;8.63;;;1.95;;
62790;SDS011;48830;53.426;10.300;2022-10-16T16:47:39;4.75;;;1.92;;
62790;SDS011;48830;53.426;10.300;2022-10-16T16:50:04;6.88;;;2.08;;
62790;SDS011;48830;53.426;10.300;2022-10-16T16:52:32;6.47;;;1.70;;
62790;SDS011;48830;53.426;10.300;2022-10-16T16:54:57;7.55;;;3.42;;